Fremont, MI

10:22 AM EST on December 04, 2016 (GMT -0500)
Fremont | | Change Station

Elev 817 ft 43.47 °N, 85.95 °W | Updated 6 seconds ago

Overcast
Overcast
34.0 °F
Feels Like 30 °F
N
4.0
Wind Variable Wind from ESE

Today
High -- | Low -- °F
--% Chance of Precip.
Yesterday
High -- | Low -- °F
Precip. -- in
Pressure 30.15 in
Visibility 10.0 miles
Clouds Overcast 2700 ft
Windchill 30 °F
Dew Point 29 °F
Humidity 83%
Rainfall 0.00 in
Snow Depth Not available.
8:00 AM 5:07 PM
Waxing Crescent, 23% visible
METAR KFFX 041515Z AUTO 15005KT 10SM OVC027 01/M05 A3015 RMK AO2 T00111046
Pressure 30.15 in
Visibility 10.0 miles
Clouds Overcast 2700 ft
Windchill 30 °F
Dew Point 29 °F
Humidity 83%
Rainfall 0.00 in
Snow Depth Not available.
8:00 AM 5:07 PM
Waxing Crescent, 23% visible
METAR KFFX 041515Z AUTO 15005KT 10SM OVC027 01/M05 A3015 RMK AO2 T00111046

10-Day Weather Forecast

Almanac

Astronomy

Dec. 04, 2016 Rise Set
Actual Time
Civil Twilight
Nautical Twilight
Astronomical Twilight
Moon
Length of Visible Light
Length of Day
Tomorrow will be .
, % of the Moon is Illuminated

Today's Extremes

State Highs State Lows

Community

WunderPhotos

Upload Photos

1,955,608 photos uploaded!

WunderBlog® & News

Nearby

Air Quality

  Air Quality AQ Index Pollutant
Not available.

Snow Depth

Station Depth Elevation

Earthquake Activity

City Distance Mag. Time & Date
Minimum magnitude displayed is 2.5.

Coastal Water Temperatures

Place Temperature

Stations

Nearby Weather Stations

Station Location Temp. Windchill Dew Point Humidity Wind Precip. Elev Updated Type
                   

Watches & Warnings

There are currently no watches in effect.